ETNN

Norvenich Airport

Germany
METAR ETNN 140420Z 17003KT 9999 FEW250 05/05 Q1029 BLU+
Observed Flight Rules
Nov-14 @ 04:20 UTC (27 minutes ago) Visual Flight Rules
Wind Visibility Clouds
170° at 3 knots 10,000+ meters
  • Few at 25,000' AGL
Temperatures Readings
Current 5°C / 41°F
Dewpoint 5°C / 41°F
Humidity 100%
Altimeter 30.38" Hg
Pressure 1029 hPa
Elevation 135
METAR ETNN 140420Z 17003KT 9999 FEW250 05/05 Q1029 BLU+
Observed Flight Rules
Nov-14 @ 04:20 UTC
(27 minutes ago)
VFR
Wind Visibility
170° at 3 knots 10,000+ meters
Clouds
  • Few at 25,000' AGL
Temperature Dewpoint
5°C / 41°F 5°C / 41°F
Humidity Altimeter Pressure
100% 30.38" Hg 1029 hPa